Time;durP1;ratioP1;P1;durP2;ratioP2;P2;SDS_P1;SDS_P2;PMS_P1;PMS_P2;Temp;Humidity;BMP_temperature;BMP_pressure;BME280_temperature;BME280_humidity;BME280_pressure;Samples;Min_cycle;Max_cycle;Signal;HPM_P1;HPM_P2
2023/05/08 00:00:20;;;;;;;4.20;3.80;;;20.70;83.50;;;;;;5093287;28;20219;-80
2023/05/08 00:02:47;;;;;;;5.37;4.57;;;20.70;83.70;;;;;;5080488;28;20217;-82
2023/05/08 00:05:14;;;;;;;7.20;4.43;;;20.70;83.90;;;;;;5077948;28;20232;-81
2023/05/08 00:07:41;;;;;;;4.80;4.40;;;20.70;83.80;;;;;;5086154;28;20203;-81
2023/05/08 00:10:09;;;;;;;4.23;3.93;;;20.70;83.90;;;;;;5088388;28;20220;-79
2023/05/08 00:12:37;;;;;;;7.17;4.30;;;20.70;83.80;;;;;;5079194;28;20231;-79
2023/05/08 00:15:06;;;;;;;4.70;4.20;;;20.70;83.60;;;;;;5074144;28;20197;-81
2023/05/08 00:17:33;;;;;;;4.87;4.07;;;20.70;83.80;;;;;;5074505;28;20211;-81
2023/05/08 00:20:00;;;;;;;4.40;4.00;;;20.70;83.60;;;;;;5087879;28;20204;-80
2023/05/08 00:22:27;;;;;;;4.97;4.23;;;20.60;83.60;;;;;;5072673;28;20216;-80
2023/05/08 00:24:54;;;;;;;4.23;3.83;;;20.60;83.50;;;;;;5072590;28;20770;-81
2023/05/08 00:27:21;;;;;;;5.80;4.37;;;20.60;83.50;;;;;;5085526;28;20193;-79
2023/05/08 00:29:49;;;;;;;4.73;4.33;;;20.60;83.60;;;;;;5056903;28;20657;-80
2023/05/08 00:32:17;;;;;;;4.47;4.03;;;20.60;83.80;;;;;;5075767;28;20228;-80
2023/05/08 00:34:44;;;;;;;5.03;4.53;;;20.50;83.60;;;;;;5092815;28;20211;-80
2023/05/08 00:37:11;;;;;;;4.33;3.93;;;20.50;83.60;;;;;;5092770;28;20208;-81
2023/05/08 00:39:38;;;;;;;4.87;3.57;;;20.50;83.60;;;;;;5092167;28;20210;-80
2023/05/08 00:42:05;;;;;;;4.73;4.27;;;20.50;83.70;;;;;;5091763;28;20221;-82
2023/05/08 00:44:32;;;;;;;5.03;4.00;;;20.50;83.70;;;;;;5083846;28;20228;-82
2023/05/08 00:46:59;;;;;;;4.60;4.20;;;20.50;83.80;;;;;;5092629;28;20207;-79
2023/05/08 00:49:28;;;;;;;4.40;4.00;;;20.50;83.70;;;;;;5077788;28;20606;-81
2023/05/08 00:51:56;;;;;;;5.30;4.80;;;20.50;83.80;;;;;;5074413;28;20232;-80
2023/05/08 00:54:24;;;;;;;6.73;4.37;;;20.50;84.20;;;;;;5072889;28;20197;-80
2023/05/08 00:56:53;;;;;;;4.80;4.37;;;20.30;84.20;;;;;;5088128;28;20399;-82
2023/05/08 00:59:21;;;;;;;3.83;3.53;;;20.40;84.60;;;;;;5091505;28;20212;-79
2023/05/08 01:01:49;;;;;;;4.97;4.00;;;20.40;84.50;;;;;;5054863;28;20692;-81
2023/05/08 01:04:19;;;;;;;4.37;3.97;;;20.40;84.60;;;;;;5073275;28;20247;-80
2023/05/08 01:06:48;;;;;;;5.27;4.03;;;20.40;84.50;;;;;;5076321;28;20206;-80
2023/05/08 01:09:14;;;;;;;5.50;3.93;;;20.40;84.40;;;;;;5092227;28;20212;-81
2023/05/08 01:11:47;;;;;;;4.53;4.13;;;20.40;84.30;;;;;;5082914;28;20254;-83
2023/05/08 01:14:20;;;;;;;5.77;4.17;;;20.40;84.40;;;;;;5074174;28;20213;-81
2023/05/08 01:16:58;;;;;;;4.87;4.37;;;20.40;84.30;;;;;;5072265;28;20559;-81
2023/05/08 01:19:57;;;;;;;3.73;3.43;;;20.40;84.20;;;;;;5089378;28;20544;-82
2023/05/08 01:22:44;;;;;;;4.13;3.77;;;20.40;84.30;;;;;;5087415;28;20204;-81
2023/05/08 01:25:42;;;;;;;4.63;4.23;;;20.40;84.10;;;;;;5092036;28;20569;-81
2023/05/08 01:28:44;;;;;;;4.47;3.73;;;20.40;84.40;;;;;;5078988;28;20225;-80
2023/05/08 01:31:21;;;;;;;4.80;4.27;;;20.40;84.50;;;;;;5055432;28;20197;-81
2023/05/08 01:33:55;;;;;;;5.13;3.77;;;20.30;84.20;;;;;;5085208;28;20203;-80
2023/05/08 01:36:29;;;;;;;4.47;3.87;;;20.30;84.40;;;;;;5078382;28;20282;-80
2023/05/08 01:39:05;;;;;;;5.17;4.57;;;20.40;84.40;;;;;;5072112;28;20193;-79
2023/05/08 01:41:36;;;;;;;4.30;4.00;;;20.40;84.60;;;;;;5061706;28;20614;-80
2023/05/08 01:44:12;;;;;;;5.53;4.43;;;20.30;84.50;;;;;;5052095;28;20593;-81
2023/05/08 01:46:39;;;;;;;5.67;4.97;;;20.30;84.50;;;;;;5056931;28;20196;-81
2023/05/08 01:49:11;;;;;;;4.50;4.10;;;20.30;84.40;;;;;;5072227;28;20205;-81
2023/05/08 01:51:42;;;;;;;5.87;4.53;;;20.30;84.50;;;;;;5074588;28;20219;-77
2023/05/08 01:54:14;;;;;;;4.93;4.47;;;20.30;84.60;;;;;;5076017;28;20207;-81
2023/05/08 01:56:44;;;;;;;5.53;4.90;;;20.30;84.80;;;;;;5056595;28;20225;-79
2023/05/08 01:59:15;;;;;;;5.07;4.57;;;20.30;84.80;;;;;;5072111;28;20225;-79
2023/05/08 02:01:42;;;;;;;4.87;4.00;;;20.30;84.80;;;;;;5073415;28;20209;-80
2023/05/08 02:04:12;;;;;;;5.10;4.60;;;20.30;84.80;;;;;;5071978;28;20229;-80
2023/05/08 02:06:40;;;;;;;4.50;4.10;;;20.30;85.00;;;;;;5077107;28;20200;-79
2023/05/08 02:09:09;;;;;;;4.80;4.27;;;20.30;84.80;;;;;;5075398;28;20664;-81
2023/05/08 02:11:41;;;;;;;4.90;4.30;;;20.20;84.80;;;;;;5076017;28;20568;-79
2023/05/08 02:14:09;;;;;;;5.10;4.50;;;20.20;85.00;;;;;;5077681;28;20296;-80
2023/05/08 02:16:37;;;;;;;4.30;3.90;;;20.20;85.00;;;;;;5075814;28;20220;-82
2023/05/08 02:19:08;;;;;;;4.50;4.00;;;20.20;85.00;;;;;;5081739;28;20212;-80
2023/05/08 02:21:38;;;;;;;5.67;4.23;;;20.30;85.00;;;;;;5093760;28;20319;-82
2023/05/08 02:24:06;;;;;;;4.90;4.40;;;20.30;85.00;;;;;;5075958;28;20720;-79
2023/05/08 02:26:34;;;;;;;5.03;4.53;;;20.30;85.00;;;;;;5095653;28;20204;-79
2023/05/08 02:29:03;;;;;;;5.47;4.93;;;20.30;85.10;;;;;;5087215;28;20672;-80
2023/05/08 02:31:30;;;;;;;5.40;4.90;;;20.30;85.20;;;;;;5087095;28;20232;-78
2023/05/08 02:33:59;;;;;;;4.80;4.30;;;20.30;85.20;;;;;;5095108;28;20254;-80
2023/05/08 02:36:28;;;;;;;4.97;4.47;;;20.30;85.20;;;;;;5095041;28;20215;-78
2023/05/08 02:38:59;;;;;;;6.00;5.40;;;20.20;85.30;;;;;;5080465;28;20654;-78
2023/05/08 02:41:29;;;;;;;5.20;4.70;;;20.20;85.30;;;;;;5075189;28;20557;-81
2023/05/08 02:43:56;;;;;;;5.73;5.23;;;20.20;85.20;;;;;;5074775;28;20220;-79
2023/05/08 02:46:29;;;;;;;5.97;5.37;;;20.30;85.20;;;;;;5094853;28;20200;-80
2023/05/08 02:48:59;;;;;;;5.20;4.80;;;20.20;85.40;;;;;;5082472;28;20208;-80
2023/05/08 02:51:29;;;;;;;5.30;4.90;;;20.20;85.40;;;;;;5073554;28;20573;-81
2023/05/08 02:54:04;;;;;;;5.13;4.63;;;20.20;85.40;;;;;;5078760;28;20197;-80
2023/05/08 02:56:37;;;;;;;6.70;5.40;;;20.20;85.60;;;;;;5091395;28;20317;-81
2023/05/08 02:59:26;;;;;;;6.00;5.40;;;20.20;85.70;;;;;;5055401;28;20333;-81
2023/05/08 03:01:59;;;;;;;5.47;4.97;;;20.20;85.90;;;;;;5083733;28;20212;-79
2023/05/08 03:04:31;;;;;;;6.00;5.50;;;20.30;85.90;;;;;;5084648;28;20246;-79
2023/05/08 03:07:00;;;;;;;6.20;5.60;;;20.30;85.70;;;;;;5078732;28;20235;-82
2023/05/08 03:09:39;;;;;;;6.67;5.20;;;20.30;85.70;;;;;;5058583;28;20201;-81
2023/05/08 03:12:12;;;;;;;6.43;5.80;;;20.20;85.70;;;;;;5054848;28;20190;-80
2023/05/08 03:14:45;;;;;;;5.27;4.77;;;20.30;85.80;;;;;;5067553;28;20211;-80
2023/05/08 03:17:16;;;;;;;6.23;5.63;;;20.30;85.80;;;;;;5092377;28;20696;-79
2023/05/08 03:19:47;;;;;;;6.77;5.57;;;20.30;85.80;;;;;;5084560;28;20364;-80
2023/05/08 03:22:16;;;;;;;6.10;5.60;;;20.30;85.90;;;;;;5071726;28;20198;-80
2023/05/08 03:24:46;;;;;;;5.30;4.90;;;20.20;85.90;;;;;;5074125;28;20295;-80
2023/05/08 03:27:14;;;;;;;8.13;5.17;;;20.30;86.00;;;;;;5077491;28;20276;-80
2023/05/08 03:29:43;;;;;;;6.53;5.60;;;20.30;86.00;;;;;;5078028;28;20227;-78
2023/05/08 03:32:11;;;;;;;6.60;6.00;;;20.30;86.00;;;;;;5085050;28;20292;-81
2023/05/08 03:34:40;;;;;;;6.70;5.83;;;20.30;86.00;;;;;;5077671;28;20227;-79
2023/05/08 03:37:08;;;;;;;7.60;5.80;;;20.30;86.00;;;;;;5069522;28;20205;-81
2023/05/08 03:39:34;;;;;;;7.00;5.13;;;20.30;85.90;;;;;;5073917;28;20229;-77
2023/05/08 03:42:03;;;;;;;7.03;6.43;;;20.20;85.90;;;;;;5073692;28;20209;-76
2023/05/08 03:44:30;;;;;;;7.03;5.90;;;20.20;85.90;;;;;;5073322;28;20225;-81
2023/05/08 03:46:58;;;;;;;6.33;5.83;;;20.30;86.10;;;;;;5073376;28;20225;-81
2023/05/08 03:49:26;;;;;;;6.03;5.53;;;20.30;86.10;;;;;;5073401;28;20718;-79
2023/05/08 03:51:54;;;;;;;6.30;5.70;;;20.30;86.10;;;;;;5073300;28;20213;-82
2023/05/08 03:54:24;;;;;;;6.00;5.50;;;20.20;86.00;;;;;;5073440;28;20205;-81
2023/05/08 03:56:51;;;;;;;6.90;6.30;;;20.20;86.10;;;;;;5073298;28;20205;-81
2023/05/08 03:59:28;;;;;;;6.13;5.63;;;20.20;86.30;;;;;;5073414;28;20251;-79
2023/05/08 04:02:01;;;;;;;6.87;6.23;;;20.30;86.60;;;;;;5073506;28;20208;-81
2023/05/08 04:04:38;;;;;;;7.13;6.43;;;20.30;86.60;;;;;;5062272;28;20569;-80
2023/05/08 04:07:10;;;;;;;7.10;6.17;;;20.30;86.60;;;;;;5082715;28;20599;-80
2023/05/08 04:09:44;;;;;;;7.13;6.17;;;20.30;86.50;;;;;;5083913;28;20592;-79
2023/05/08 04:12:17;;;;;;;7.53;6.47;;;20.30;86.80;;;;;;5072952;28;20242;-81
2023/05/08 04:14:50;;;;;;;7.50;6.70;;;20.30;86.70;;;;;;5082973;28;20200;-79
2023/05/08 04:17:27;;;;;;;8.13;6.93;;;20.30;86.70;;;;;;5040190;28;20736;-79
2023/05/08 04:20:02;;;;;;;7.67;6.97;;;20.30;86.70;;;;;;5079466;28;20684;-81
2023/05/08 04:22:31;;;;;;;8.00;6.10;;;20.30;86.80;;;;;;5074873;28;20200;-80
2023/05/08 04:25:02;;;;;;;7.70;7.00;;;20.30;86.60;;;;;;5081156;28;20202;-81
2023/05/08 04:27:30;;;;;;;7.93;7.13;;;20.30;86.60;;;;;;5073860;28;20208;-81
2023/05/08 04:29:58;;;;;;;8.33;7.53;;;20.30;86.80;;;;;;5092121;28;20223;-79
2023/05/08 04:32:27;;;;;;;7.33;6.63;;;20.30;86.90;;;;;;5057267;28;20204;-80
2023/05/08 04:34:55;;;;;;;8.90;7.77;;;20.30;86.90;;;;;;5093388;28;20545;-81
2023/05/08 04:37:27;;;;;;;8.60;7.80;;;20.20;86.70;;;;;;5091811;28;20212;-81
2023/05/08 04:39:54;;;;;;;8.17;7.37;;;20.30;86.70;;;;;;5080825;28;20306;-80
2023/05/08 04:42:21;;;;;;;7.73;6.97;;;20.20;86.60;;;;;;5075458;28;20185;-80
2023/05/08 04:44:48;;;;;;;7.93;7.23;;;20.30;86.90;;;;;;5080963;28;20217;-81
2023/05/08 04:47:16;;;;;;;7.37;6.60;;;20.30;86.80;;;;;;5072866;28;20235;-81
2023/05/08 04:49:43;;;;;;;8.50;7.70;;;20.30;86.70;;;;;;5078254;28;20288;-81
2023/05/08 04:52:21;;;;;;;8.53;7.73;;;20.30;86.80;;;;;;5092546;28;20785;-80
2023/05/08 04:54:48;;;;;;;7.33;6.60;;;20.30;86.70;;;;;;5081225;28;20199;-80
2023/05/08 04:57:14;;;;;;;7.07;6.37;;;20.40;87.00;;;;;;5091343;28;20222;-81
2023/05/08 04:59:41;;;;;;;9.10;6.47;;;20.30;86.70;;;;;;5092025;28;20207;-80
2023/05/08 05:02:08;;;;;;;7.67;6.97;;;20.30;86.70;;;;;;5072768;28;20205;-79
2023/05/08 05:04:37;;;;;;;7.70;6.90;;;20.40;86.80;;;;;;5087381;28;20216;-81
2023/05/08 05:07:04;;;;;;;8.57;6.60;;;20.40;86.90;;;;;;5072133;28;20317;-81
2023/05/08 05:09:35;;;;;;;8.17;7.37;;;20.40;86.60;;;;;;5072309;28;20299;-80
2023/05/08 05:12:02;;;;;;;6.60;6.00;;;20.40;86.60;;;;;;5080611;28;20208;-81
2023/05/08 05:14:29;;;;;;;9.30;7.37;;;20.40;86.60;;;;;;5070293;28;20228;-79
2023/05/08 05:16:56;;;;;;;6.90;6.27;;;20.40;86.90;;;;;;5068853;28;20201;-76
2023/05/08 05:19:23;;;;;;;8.17;7.37;;;20.40;86.70;;;;;;5089732;28;20207;-76
2023/05/08 05:21:51;;;;;;;7.20;6.50;;;20.40;86.90;;;;;;5073238;28;20235;-79
2023/05/08 05:24:18;;;;;;;7.43;6.33;;;20.40;86.80;;;;;;5093234;28;20572;-77
2023/05/08 05:26:45;;;;;;;8.20;7.43;;;20.30;86.70;;;;;;5096618;28;20295;-80
2023/05/08 05:29:12;;;;;;;7.47;6.77;;;20.30;86.90;;;;;;5077508;28;20232;-77
2023/05/08 05:31:38;;;;;;;8.37;7.53;;;20.30;87.00;;;;;;5088786;28;20208;-79
2023/05/08 05:34:05;;;;;;;7.17;6.50;;;20.30;87.10;;;;;;5096445;28;20652;-80
2023/05/08 05:36:32;;;;;;;9.13;8.17;;;20.40;87.20;;;;;;5090595;28;20720;-79
2023/05/08 05:39:01;;;;;;;7.73;6.93;;;20.30;87.20;;;;;;5075773;28;20208;-80
2023/05/08 05:41:44;;;;;;;7.70;7.00;;;20.30;87.20;;;;;;5074808;28;20209;-79
2023/05/08 05:44:12;;;;;;;7.33;6.63;;;20.40;87.80;;;;;;5076010;28;20736;-79
2023/05/08 05:46:39;;;;;;;8.73;6.50;;;20.40;87.50;;;;;;5086646;28;20201;-78
2023/05/08 05:49:06;;;;;;;7.80;7.03;;;20.40;87.50;;;;;;5084127;28;20292;-78
2023/05/08 05:51:33;;;;;;;7.90;7.10;;;20.40;87.30;;;;;;5087827;28;20302;-77
2023/05/08 05:54:01;;;;;;;7.80;6.73;;;20.40;87.10;;;;;;5081876;28;20536;-78
2023/05/08 05:56:28;;;;;;;8.07;7.27;;;20.40;87.00;;;;;;5096644;28;20235;-81
2023/05/08 05:58:55;;;;;;;8.73;7.30;;;20.40;87.00;;;;;;5096482;28;20707;-79
2023/05/08 06:01:23;;;;;;;8.13;7.30;;;20.50;87.30;;;;;;5060401;28;20703;-77
2023/05/08 06:03:50;;;;;;;7.10;6.30;;;20.40;87.40;;;;;;5089177;28;20324;-78
2023/05/08 06:06:17;;;;;;;6.27;5.67;;;20.50;87.50;;;;;;5078023;28;20703;-79
2023/05/08 06:08:44;;;;;;;7.37;6.77;;;20.50;87.40;;;;;;5083365;28;20753;-78
2023/05/08 06:11:12;;;;;;;6.70;6.10;;;20.50;87.50;;;;;;5072876;28;20228;-76
2023/05/08 06:13:39;;;;;;;7.40;6.60;;;20.60;87.30;;;;;;5078079;28;20203;-77
2023/05/08 06:16:07;;;;;;;8.97;6.90;;;20.50;87.20;;;;;;5091788;28;20291;-77
2023/05/08 06:18:43;;;;;;;7.77;7.00;;;20.50;87.30;;;;;;5094337;28;20247;-77
2023/05/08 06:21:10;;;;;;;7.30;6.70;;;20.50;87.60;;;;;;5093912;28;20214;-77
2023/05/08 06:23:37;;;;;;;7.37;6.30;;;20.50;87.50;;;;;;5093792;28;20671;-78
2023/05/08 06:26:04;;;;;;;7.57;6.87;;;20.50;87.50;;;;;;5093808;28;20720;-78
2023/05/08 06:28:32;;;;;;;7.57;6.87;;;20.50;87.50;;;;;;5092746;28;20212;-78
2023/05/08 06:30:59;;;;;;;7.30;6.13;;;20.50;87.50;;;;;;5058091;28;20208;-77
2023/05/08 06:33:26;;;;;;;6.50;5.90;;;20.50;87.40;;;;;;5093869;28;20202;-77
2023/05/08 06:35:53;;;;;;;6.53;5.93;;;20.60;87.70;;;;;;5092444;28;20205;-77
2023/05/08 06:38:20;;;;;;;6.87;6.00;;;20.50;87.50;;;;;;5092142;28;20209;-76
2023/05/08 06:40:48;;;;;;;7.83;7.07;;;20.50;87.50;;;;;;5093108;28;20645;-77
2023/05/08 06:43:15;;;;;;;8.63;6.60;;;20.60;87.60;;;;;;5072224;28;20284;-78
2023/05/08 06:45:45;;;;;;;7.60;6.90;;;20.60;87.60;;;;;;5073116;28;20232;-78
2023/05/08 06:48:11;;;;;;;7.53;6.83;;;20.60;87.70;;;;;;5073320;28;20205;-77
2023/05/08 06:50:39;;;;;;;7.53;6.57;;;20.60;87.80;;;;;;5073216;28;20212;-76
2023/05/08 06:53:06;;;;;;;8.13;7.40;;;20.60;87.90;;;;;;5072968;28;20264;-76
2023/05/08 06:55:33;;;;;;;10.13;7.10;;;20.70;88.20;;;;;;5037493;28;20209;-76
2023/05/08 06:58:00;;;;;;;9.47;8.50;;;20.70;88.00;;;;;;5073580;28;20229;-77
2023/05/08 07:00:27;;;;;;;9.63;8.40;;;20.70;87.80;;;;;;5038079;28;20212;-77
2023/05/08 07:02:55;;;;;;;8.33;7.37;;;20.80;88.20;;;;;;5075124;28;20244;-75
2023/05/08 07:05:23;;;;;;;10.87;8.60;;;20.80;88.40;;;;;;5088885;28;20285;-78
2023/05/08 07:07:52;;;;;;;10.83;8.93;;;20.90;88.30;;;;;;5091680;28;20244;-78
2023/05/08 07:10:21;;;;;;;10.20;8.40;;;20.90;88.00;;;;;;5090841;28;20227;-77
2023/05/08 07:12:48;;;;;;;11.57;8.80;;;20.90;87.90;;;;;;5088607;28;20796;-76
2023/05/08 07:15:15;;;;;;;12.50;9.57;;;21.00;88.20;;;;;;5089515;28;20249;-77
2023/05/08 07:17:42;;;;;;;10.93;9.63;;;21.00;88.00;;;;;;5088367;28;20303;-75
2023/05/08 07:20:10;;;;;;;13.00;10.07;;;21.00;87.60;;;;;;5072237;28;20205;-75
2023/05/08 07:22:37;;;;;;;13.60;9.60;;;21.00;87.70;;;;;;5073021;28;20200;-77
2023/05/08 07:25:05;;;;;;;11.10;8.77;;;21.10;88.00;;;;;;5081705;28;20221;-78
2023/05/08 07:27:32;;;;;;;9.57;8.50;;;21.10;88.00;;;;;;5073585;28;20386;-79
2023/05/08 07:30:02;;;;;;;9.13;8.07;;;21.10;88.20;;;;;;5072898;28;20301;-78
2023/05/08 07:32:30;;;;;;;8.93;7.60;;;21.10;88.10;;;;;;5073252;28;20696;-78
2023/05/08 07:34:57;;;;;;;8.67;7.13;;;21.10;88.00;;;;;;5072554;28;20189;-78
2023/05/08 07:37:25;;;;;;;8.60;7.70;;;21.20;88.00;;;;;;5071397;28;20200;-76
2023/05/08 07:39:52;;;;;;;11.10;8.90;;;21.20;88.10;;;;;;5074705;28;20228;-78
2023/05/08 07:42:20;;;;;;;10.90;8.80;;;21.20;87.80;;;;;;5093083;28;20205;-79
2023/05/08 07:44:47;;;;;;;9.10;8.20;;;21.20;87.70;;;;;;5089914;28;20223;-76
2023/05/08 07:47:15;;;;;;;9.40;8.40;;;21.20;87.70;;;;;;5071793;28;20296;-78
2023/05/08 07:49:42;;;;;;;10.77;9.63;;;21.20;88.00;;;;;;5072444;28;20204;-76
2023/05/08 07:52:09;;;;;;;11.13;10.03;;;21.20;87.90;;;;;;5072122;28;20213;-78
2023/05/08 07:54:37;;;;;;;10.50;9.40;;;21.20;88.00;;;;;;5072399;28;20602;-77
2023/05/08 07:57:04;;;;;;;11.80;10.20;;;21.20;88.10;;;;;;5071547;28;20963;-79
2023/05/08 07:59:32;;;;;;;11.50;10.30;;;21.20;88.40;;;;;;5071290;28;20675;-75
2023/05/08 08:01:59;;;;;;;12.90;11.33;;;21.20;88.00;;;;;;5087034;28;20642;-78
2023/05/08 08:04:27;;;;;;;12.63;11.00;;;21.30;87.80;;;;;;5092588;28;20224;-79
2023/05/08 08:06:54;;;;;;;12.37;10.37;;;21.30;87.70;;;;;;5091524;28;20200;-76
2023/05/08 08:09:22;;;;;;;11.00;9.80;;;21.30;87.70;;;;;;5092720;28;20232;-78
2023/05/08 08:11:50;;;;;;;13.93;11.80;;;21.40;88.00;;;;;;5076981;28;20221;-79
2023/05/08 08:14:17;;;;;;;12.67;9.90;;;21.50;88.00;;;;;;5076058;28;20204;-79
2023/05/08 08:16:44;;;;;;;11.20;10.10;;;21.50;87.90;;;;;;5083391;28;20679;-77
2023/05/08 08:19:11;;;;;;;12.63;9.53;;;21.60;88.00;;;;;;5091290;28;20622;-77
2023/05/08 08:21:42;;;;;;;13.07;11.47;;;21.60;87.80;;;;;;5092519;28;20291;-77
2023/05/08 08:24:09;;;;;;;14.63;11.93;;;21.70;87.60;;;;;;5092153;28;20260;-79
2023/05/08 08:26:36;;;;;;;13.57;10.47;;;21.80;87.50;;;;;;5092679;28;20203;-78
2023/05/08 08:29:04;;;;;;;13.07;11.23;;;21.80;87.30;;;;;;5093008;28;20204;-77
2023/05/08 08:31:31;;;;;;;12.93;11.53;;;21.90;87.30;;;;;;5086776;28;20224;-79
2023/05/08 08:33:58;;;;;;;14.27;10.97;;;22.00;86.90;;;;;;5073450;28;20205;-77
2023/05/08 08:36:25;;;;;;;12.17;9.97;;;22.00;86.50;;;;;;5077108;28;20678;-78
2023/05/08 08:38:52;;;;;;;12.17;10.60;;;22.10;86.10;;;;;;5092571;28;20203;-79
2023/05/08 08:41:20;;;;;;;12.07;10.77;;;22.20;86.00;;;;;;5090909;28;20220;-81
2023/05/08 08:43:47;;;;;;;14.30;11.33;;;22.20;85.70;;;;;;5068058;28;20349;-78
2023/05/08 08:46:15;;;;;;;11.60;10.37;;;22.30;85.60;;;;;;5073592;28;20204;-80
2023/05/08 08:48:45;;;;;;;11.50;10.30;;;22.40;85.70;;;;;;5073031;28;20679;-79
2023/05/08 08:51:18;;;;;;;12.13;10.23;;;22.40;85.10;;;;;;5053438;28;20219;-80
2023/05/08 08:53:50;;;;;;;12.20;10.80;;;22.50;84.80;;;;;;5074524;28;20214;-79
2023/05/08 08:56:17;;;;;;;10.70;9.60;;;22.60;85.60;;;;;;5072600;28;20240;-81
2023/05/08 08:58:54;;;;;;;12.93;9.20;;;22.70;84.90;;;;;;5090651;28;20270;-79
2023/05/08 09:01:27;;;;;;;12.13;10.77;;;22.70;85.10;;;;;;5092987;28;20188;-80
2023/05/08 09:03:56;;;;;;;11.13;9.37;;;22.80;85.60;;;;;;5074240;28;20864;-79
2023/05/08 09:06:23;;;;;;;10.50;8.83;;;22.80;84.10;;;;;;5072278;28;20209;-80
2023/05/08 09:08:55;;;;;;;10.00;8.20;;;22.90;83.70;;;;;;5072822;28;20255;-80
2023/05/08 09:11:22;;;;;;;13.00;10.20;;;22.90;83.70;;;;;;5071916;28;20731;-79
2023/05/08 09:13:49;;;;;;;11.10;9.70;;;22.90;83.50;;;;;;5053343;28;20303;-79
2023/05/08 09:16:16;;;;;;;12.93;9.60;;;22.90;83.30;;;;;;5072479;28;20224;-80
2023/05/08 09:18:44;;;;;;;10.67;9.57;;;22.90;83.70;;;;;;5072193;28;20205;-79
2023/05/08 09:21:11;;;;;;;10.33;8.70;;;22.90;83.30;;;;;;5071878;28;20212;-78
2023/05/08 09:23:54;;;;;;;9.07;8.17;;;22.90;83.30;;;;;;5072364;28;20211;-80
2023/05/08 09:26:28;;;;;;;11.80;9.60;;;22.90;83.30;;;;;;5071734;28;20709;-77
2023/05/08 09:29:08;;;;;;;11.43;10.23;;;23.00;83.40;;;;;;5072043;28;20728;-80
2023/05/08 09:31:38;;;;;;;9.63;8.63;;;23.00;83.20;;;;;;5081834;28;20211;-78
2023/05/08 09:34:07;;;;;;;8.70;7.80;;;23.00;83.10;;;;;;5091680;28;20211;-77
2023/05/08 09:36:34;;;;;;;11.17;9.33;;;23.00;83.30;;;;;;5082773;28;20205;-78
2023/05/08 09:39:02;;;;;;;11.50;10.30;;;23.00;82.90;;;;;;5072117;28;20205;-79
2023/05/08 09:41:29;;;;;;;11.23;10.00;;;23.00;82.90;;;;;;5087729;28;20660;-77
2023/05/08 09:44:03;;;;;;;11.40;10.20;;;23.00;83.30;;;;;;5092246;28;20204;-78
2023/05/08 09:46:30;;;;;;;13.30;10.00;;;23.00;83.10;;;;;;5092357;28;20201;-78
2023/05/08 09:48:58;;;;;;;10.60;9.17;;;23.00;83.10;;;;;;5088794;28;20204;-77
2023/05/08 09:51:28;;;;;;;8.80;8.00;;;23.00;83.10;;;;;;5071546;28;20221;-80
2023/05/08 09:53:57;;;;;;;10.00;8.67;;;23.10;83.00;;;;;;5051964;28;20865;-79
2023/05/08 09:56:35;;;;;;;8.87;7.90;;;23.10;82.60;;;;;;5071668;28;20194;-79
2023/05/08 09:59:05;;;;;;;9.70;8.70;;;23.10;82.50;;;;;;5071681;28;20312;-79
2023/05/08 10:01:33;;;;;;;11.23;9.80;;;23.10;82.30;;;;;;5071842;28;20209;-78
2023/05/08 10:04:02;;;;;;;12.07;9.53;;;23.10;82.20;;;;;;5071684;28;20800;-76
2023/05/08 10:06:31;;;;;;;9.07;8.17;;;23.10;82.20;;;;;;5051884;28;20241;-80
2023/05/08 10:09:11;;;;;;;10.30;8.80;;;23.00;82.20;;;;;;5071873;28;20255;-79
2023/05/08 10:11:39;;;;;;;8.97;8.00;;;23.00;82.70;;;;;;5072363;28;20686;-79
2023/05/08 10:14:05;;;;;;;9.67;8.70;;;23.00;82.60;;;;;;5074155;28;20215;-79
2023/05/08 10:16:38;;;;;;;9.00;8.10;;;23.00;82.70;;;;;;5074609;28;20221;-78
2023/05/08 10:19:12;;;;;;;9.13;8.13;;;23.00;82.70;;;;;;5074024;28;20220;-79
2023/05/08 10:21:43;;;;;;;8.17;7.30;;;22.90;82.90;;;;;;5073867;28;20709;-77
2023/05/08 10:24:15;;;;;;;8.27;7.57;;;22.90;83.00;;;;;;5074872;28;20241;-79
2023/05/08 10:26:44;;;;;;;9.13;8.23;;;22.90;83.10;;;;;;5075053;28;20232;-79
2023/05/08 10:29:18;;;;;;;8.67;7.83;;;22.80;83.00;;;;;;5075240;28;20616;-78
2023/05/08 10:31:47;;;;;;;8.80;7.90;;;22.80;83.20;;;;;;5075076;28;20256;-78
2023/05/08 10:34:19;;;;;;;7.50;6.80;;;22.70;83.10;;;;;;5074320;28;20293;-78
2023/05/08 10:36:48;;;;;;;8.63;7.83;;;22.70;83.30;;;;;;5073877;28;20217;-78
2023/05/08 10:39:16;;;;;;;7.70;7.00;;;22.60;83.10;;;;;;5081332;28;20276;-79
2023/05/08 10:41:43;;;;;;;8.27;7.50;;;22.60;83.30;;;;;;5095092;28;20289;-77
2023/05/08 10:44:10;;;;;;;8.90;8.00;;;22.60;83.50;;;;;;5089296;28;20205;-77
2023/05/08 10:46:44;;;;;;;8.40;7.60;;;22.50;83.50;;;;;;5074330;28;20224;-76
2023/05/08 10:49:19;;;;;;;9.03;8.13;;;22.50;83.80;;;;;;5078125;28;20204;-76
2023/05/08 10:52:00;;;;;;;8.57;7.77;;;22.50;84.00;;;;;;5094228;28;20722;-77
2023/05/08 10:54:38;;;;;;;8.00;7.20;;;22.40;83.90;;;;;;5086740;28;20802;-77
2023/05/08 10:57:09;;;;;;;8.30;7.47;;;22.40;84.10;;;;;;5074068;28;20189;-76
2023/05/08 10:59:36;;;;;;;8.97;8.17;;;22.40;84.30;;;;;;5081908;28;20203;-76
2023/05/08 11:02:07;;;;;;;8.73;7.97;;;22.50;84.50;;;;;;5053463;28;20204;-75
2023/05/08 11:04:35;;;;;;;8.00;7.20;;;22.40;84.70;;;;;;5066299;28;20221;-77
2023/05/08 11:07:03;;;;;;;8.13;7.43;;;22.40;84.50;;;;;;5069142;28;20611;-76
2023/05/08 11:09:45;;;;;;;9.80;8.80;;;22.50;84.50;;;;;;5052869;28;20209;-75
2023/05/08 11:12:21;;;;;;;10.93;9.73;;;22.50;84.70;;;;;;5055288;28;20320;-74
2023/05/08 11:14:57;;;;;;;8.17;7.37;;;22.40;85.40;;;;;;5052802;28;20229;-77
2023/05/08 11:17:25;;;;;;;8.47;7.67;;;22.50;85.10;;;;;;5057339;28;20690;-76
2023/05/08 11:19:57;;;;;;;9.00;8.20;;;22.40;84.70;;;;;;5089947;28;20200;-77
2023/05/08 11:22:27;;;;;;;10.13;8.93;;;22.40;85.00;;;;;;5072809;28;20262;-77
2023/05/08 11:25:06;;;;;;;8.70;7.93;;;22.40;84.80;;;;;;5072749;28;20219;-76
2023/05/08 11:27:38;;;;;;;8.47;7.23;;;22.40;84.90;;;;;;5052991;28;20292;-76
2023/05/08 11:30:25;;;;;;;7.17;6.57;;;22.40;84.50;;;;;;5056186;28;20248;-75
2023/05/08 11:33:13;;;;;;;9.23;7.33;;;22.40;84.70;;;;;;5073231;28;20307;-77
2023/05/08 11:35:47;;;;;;;8.60;7.70;;;22.40;84.40;;;;;;5078821;28;20225;-76
2023/05/08 11:38:21;;;;;;;7.57;6.87;;;22.40;84.40;;;;;;5093155;28;20215;-75
2023/05/08 11:40:52;;;;;;;10.20;9.20;;;22.40;84.50;;;;;;5091651;28;20575;-75
2023/05/08 11:44:01;;;;;;;9.00;8.20;;;22.40;84.50;;;;;;5092407;28;20238;-75
2023/05/08 11:46:43;;;;;;;11.07;9.83;;;22.40;85.20;;;;;;5079930;28;20681;-76
2023/05/08 11:49:16;;;;;;;11.60;10.50;;;22.40;85.60;;;;;;5055355;28;20571;-76
2023/05/08 11:51:45;;;;;;;9.70;8.47;;;22.40;85.40;;;;;;5071311;28;20205;-74
2023/05/08 11:54:18;;;;;;;10.30;8.77;;;22.50;85.10;;;;;;5072735;28;20542;-75
2023/05/08 11:56:46;;;;;;;8.93;8.03;;;22.50;85.20;;;;;;5092090;28;20201;-74
2023/05/08 11:59:13;;;;;;;12.23;8.90;;;22.50;84.90;;;;;;5089351;28;20628;-72
2023/05/08 12:01:40;;;;;;;9.53;8.63;;;22.60;85.00;;;;;;5080369;28;20236;-72
2023/05/08 12:04:10;;;;;;;9.27;8.47;;;22.60;85.00;;;;;;5075359;28;20201;-73
2023/05/08 12:06:38;;;;;;;10.00;9.10;;;22.70;85.10;;;;;;5089849;28;20803;-72
2023/05/08 12:09:11;;;;;;;8.03;7.40;;;22.70;84.90;;;;;;5072959;28;20232;-73
2023/05/08 12:11:42;;;;;;;9.10;8.30;;;22.70;84.90;;;;;;5071783;28;20212;-73
2023/05/08 12:14:09;;;;;;;9.17;8.27;;;22.80;85.40;;;;;;5090901;28;20247;-73
2023/05/08 12:16:37;;;;;;;9.93;8.77;;;22.90;85.40;;;;;;5091863;28;20204;-72
2023/05/08 12:19:04;;;;;;;7.80;7.10;;;22.90;85.10;;;;;;5072521;28;20202;-72
2023/05/08 12:21:31;;;;;;;10.77;9.77;;;23.00;85.40;;;;;;5071955;28;20227;-73
2023/05/08 12:23:58;;;;;;;9.43;8.53;;;23.00;85.30;;;;;;5072098;28;20218;-73
2023/05/08 12:26:25;;;;;;;9.17;8.27;;;23.10;85.10;;;;;;5082492;28;20243;-73
2023/05/08 12:29:07;;;;;;;10.33;9.30;;;23.10;84.90;;;;;;5072034;28;20236;-73
2023/05/08 12:31:34;;;;;;;10.90;9.80;;;23.20;85.70;;;;;;5072361;28;20197;-73
2023/05/08 12:34:03;;;;;;;10.60;9.33;;;23.20;85.60;;;;;;5071315;28;20204;-73
2023/05/08 12:36:34;;;;;;;9.90;8.90;;;23.30;85.10;;;;;;5041171;28;20204;-73
2023/05/08 12:39:11;;;;;;;9.60;8.60;;;23.30;84.70;;;;;;5091297;28;20201;-74
2023/05/08 12:41:42;;;;;;;8.67;7.80;;;23.30;84.90;;;;;;5051387;28;20233;-73
2023/05/08 12:44:19;;;;;;;9.90;8.37;;;23.40;85.10;;;;;;5052338;28;20216;-73
2023/05/08 12:46:50;;;;;;;7.90;7.20;;;23.50;85.60;;;;;;5071293;28;20311;-74
2023/05/08 12:49:25;;;;;;;8.60;7.43;;;23.50;84.90;;;;;;5072755;28;20227;-73
2023/05/08 12:51:52;;;;;;;8.73;7.83;;;23.60;84.50;;;;;;5071255;28;20248;-74
2023/05/08 12:54:20;;;;;;;9.30;8.50;;;23.60;84.00;;;;;;5080689;28;20248;-74
2023/05/08 12:56:50;;;;;;;10.00;9.00;;;23.60;84.50;;;;;;5091078;28;20196;-73